createdAt,value
2022-11-12T00:00:21.720Z,12.52
2022-11-12T00:03:08.462Z,15.00
2022-11-12T00:05:54.217Z,15.00
2022-11-12T00:08:39.887Z,12.15
2022-11-12T00:11:25.115Z,13.13
2022-11-12T00:14:10.554Z,12.30
2022-11-12T00:16:55.806Z,12.23
2022-11-12T00:19:41.187Z,12.15
2022-11-12T00:22:26.604Z,12.32
2022-11-12T00:25:11.946Z,14.60
2022-11-12T00:28:08.949Z,12.43
2022-11-12T00:30:54.280Z,12.25
2022-11-12T00:33:41.694Z,12.63
2022-11-12T00:36:27.018Z,13.88
2022-11-12T00:39:12.615Z,13.82
2022-11-12T00:41:58.044Z,11.98
2022-11-12T00:44:43.397Z,14.02
2022-11-12T00:47:28.954Z,12.40
2022-11-12T00:50:16.022Z,12.43
2022-11-12T00:53:01.271Z,12.95
2022-11-12T00:55:46.855Z,11.88
2022-11-12T00:58:34.700Z,13.35
2022-11-12T01:01:20.514Z,12.60
2022-11-12T01:04:06.515Z,12.75
2022-11-12T01:06:51.750Z,12.57
2022-11-12T01:09:37.376Z,11.60
2022-11-12T01:12:22.862Z,12.77
2022-11-12T01:15:08.983Z,13.85
2022-11-12T01:17:54.678Z,12.13
2022-11-12T01:20:40.222Z,14.23
2022-11-12T01:23:25.665Z,12.50
2022-11-12T01:26:13.953Z,13.55
2022-11-12T01:28:59.254Z,13.55
2022-11-12T01:31:44.712Z,13.60
2022-11-12T01:34:30.575Z,13.13
2022-11-12T01:37:16.091Z,13.00
2022-11-12T01:40:01.653Z,13.65
2022-11-12T01:42:52.683Z,11.40
2022-11-12T01:45:42.331Z,12.35
2022-11-12T01:48:33.038Z,11.30
2022-11-12T01:51:21.514Z,13.52
2022-11-12T01:54:10.897Z,12.18
2022-11-12T01:56:58.374Z,11.85
2022-11-12T01:59:47.654Z,12.27
2022-11-12T02:02:36.200Z,12.98
2022-11-12T02:05:24.000Z,12.85
2022-11-12T02:08:11.265Z,13.30
2022-11-12T02:10:56.771Z,12.93
2022-11-12T02:13:57.974Z,13.20
2022-11-12T02:16:46.015Z,12.15
2022-11-12T02:19:31.258Z,13.18
2022-11-12T02:22:16.669Z,12.30
2022-11-12T02:25:01.942Z,12.85
2022-11-12T02:27:51.812Z,14.35
2022-11-12T02:30:46.625Z,13.50
2022-11-12T02:33:31.979Z,12.13
2022-11-12T02:36:17.417Z,1.98
2022-11-12T02:39:02.825Z,2.38
2022-11-12T02:41:48.166Z,2.03
2022-11-12T02:44:33.793Z,2.78
2022-11-12T02:47:19.529Z,2.25
2022-11-12T02:50:05.430Z,1.98
2022-11-12T02:52:50.739Z,2.03
2022-11-12T02:55:36.191Z,2.38
2022-11-12T02:58:22.735Z,1.17
2022-11-12T03:01:08.489Z,2.92
2022-11-12T03:03:54.011Z,2.17
2022-11-12T03:25:42.310Z,2.13
2022-11-12T03:28:27.909Z,1.52
2022-11-12T03:31:13.578Z,2.55
2022-11-12T03:33:58.923Z,2.85
2022-11-12T03:36:44.309Z,2.40
2022-11-12T03:39:29.736Z,2.22
2022-11-12T03:42:14.951Z,1.52
2022-11-12T03:45:00.200Z,3.33
2022-11-12T03:47:50.478Z,1.83
2022-11-12T03:50:35.755Z,4.00
2022-11-12T03:53:21.092Z,2.28
2022-11-12T03:56:06.886Z,2.83
2022-11-12T03:58:52.268Z,1.50
2022-11-12T04:01:38.001Z,2.17
2022-11-12T04:04:23.611Z,2.20
2022-11-12T04:07:27.565Z,2.65
2022-11-12T04:10:13.130Z,3.42
2022-11-12T04:13:17.211Z,2.08
2022-11-12T04:16:49.329Z,9.88
2022-11-12T04:19:53.474Z,10.48
2022-11-12T04:22:38.932Z,10.05
2022-11-12T04:25:44.469Z,10.27
2022-11-12T04:28:29.923Z,10.77
2022-11-12T04:31:15.472Z,9.20
2022-11-12T04:34:20.945Z,9.30
2022-11-12T04:37:07.242Z,10.43
2022-11-12T04:39:53.473Z,9.85
2022-11-12T04:42:57.101Z,10.20
2022-11-12T04:45:45.197Z,11.25
2022-11-12T04:48:31.026Z,10.40
2022-11-12T04:51:34.866Z,9.70
2022-11-12T04:54:20.295Z,11.32
2022-11-12T04:57:05.918Z,11.90
2022-11-12T04:59:51.238Z,11.68
2022-11-12T05:02:36.549Z,10.98
2022-11-12T05:05:22.167Z,11.85
2022-11-12T05:08:07.628Z,10.80
2022-11-12T05:10:53.056Z,12.63
2022-11-12T05:13:38.316Z,10.93
2022-11-12T05:16:23.626Z,10.68
2022-11-12T05:19:09.297Z,11.63
2022-11-12T05:22:06.363Z,10.82
2022-11-12T05:24:51.831Z,11.73
2022-11-12T05:27:37.200Z,12.60
2022-11-12T05:30:22.495Z,12.23
2022-11-12T05:33:07.840Z,9.93
2022-11-12T05:35:56.416Z,10.73
2022-11-12T05:38:42.294Z,10.35
2022-11-12T05:41:32.897Z,9.77
2022-11-12T05:44:30.902Z,9.88
2022-11-12T05:47:16.851Z,9.40
2022-11-12T05:50:02.494Z,9.68
2022-11-12T05:52:47.807Z,9.77
2022-11-12T05:55:37.010Z,8.40
2022-11-12T05:58:22.500Z,8.55
2022-11-12T06:01:08.278Z,9.10
2022-11-12T06:03:53.521Z,7.97
2022-11-12T06:06:40.369Z,7.90
2022-11-12T06:09:25.657Z,6.80
2022-11-12T06:12:10.959Z,8.35
2022-11-12T06:14:56.537Z,8.57
2022-11-12T06:17:42.583Z,9.20
2022-11-12T06:20:27.845Z,8.85
2022-11-12T06:23:13.184Z,10.00
2022-11-12T06:25:58.667Z,8.48
2022-11-12T06:28:44.511Z,9.23
2022-11-12T06:31:29.835Z,8.57
2022-11-12T06:34:15.328Z,9.00
2022-11-12T06:37:00.711Z,8.65
2022-11-12T06:39:46.087Z,6.75
2022-11-12T06:42:31.621Z,6.90
2022-11-12T06:45:17.012Z,6.20
2022-11-12T06:48:02.544Z,7.95
2022-11-12T06:50:47.837Z,7.38
2022-11-12T06:53:33.419Z,8.88
2022-11-12T06:56:18.663Z,8.18
2022-11-12T06:59:04.107Z,9.00
2022-11-12T07:01:49.415Z,9.63
2022-11-12T07:04:35.083Z,9.05
2022-11-12T07:07:20.492Z,9.75
2022-11-12T07:10:06.276Z,9.10
2022-11-12T07:12:54.169Z,9.45
2022-11-12T07:15:39.510Z,9.38
2022-11-12T07:18:25.532Z,10.30
2022-11-12T07:21:13.893Z,10.07
2022-11-12T07:23:59.307Z,10.23
2022-11-12T07:26:47.415Z,10.68
2022-11-12T07:29:47.120Z,9.45
2022-11-12T07:32:36.190Z,8.60
2022-11-12T07:35:24.022Z,7.57
2022-11-12T07:38:09.406Z,8.75
2022-11-12T07:41:02.690Z,8.52
2022-11-12T07:43:49.419Z,7.47
2022-11-12T07:46:35.097Z,9.68
2022-11-12T07:49:20.363Z,8.55
2022-11-12T07:52:05.801Z,8.73
2022-11-12T07:54:51.431Z,8.90
2022-11-12T07:57:36.670Z,10.00
2022-11-12T08:00:22.053Z,9.60
2022-11-12T08:03:07.374Z,7.57
2022-11-12T08:05:53.022Z,7.65
2022-11-12T08:08:38.061Z,7.95
2022-11-12T08:11:23.928Z,8.43
2022-11-12T08:14:09.635Z,8.90
2022-11-12T08:16:54.979Z,7.70
2022-11-12T08:19:40.457Z,8.65
2022-11-12T08:22:25.950Z,8.05
2022-11-12T08:25:11.131Z,7.40
2022-11-12T08:27:58.388Z,6.85
2022-11-12T08:30:43.879Z,7.60
2022-11-12T08:33:30.399Z,7.80
2022-11-12T08:36:17.671Z,7.38
2022-11-12T08:39:02.737Z,6.93
2022-11-12T08:41:48.112Z,7.72
2022-11-12T08:44:33.462Z,6.57
2022-11-12T08:47:18.957Z,7.53
2022-11-12T08:50:04.376Z,7.07
2022-11-12T08:52:49.993Z,7.20
2022-11-12T08:55:36.481Z,6.82
2022-11-12T08:58:22.156Z,6.68
2022-11-12T09:01:08.296Z,6.95
2022-11-12T09:03:53.595Z,19.80
2022-11-12T09:06:39.024Z,6.82
2022-11-12T09:09:24.477Z,5.07
2022-11-12T09:12:19.110Z,4.60
2022-11-12T09:15:36.271Z,5.57
2022-11-12T09:18:15.056Z,4.57
2022-11-12T09:21:06.618Z,3.90
2022-11-12T09:23:52.123Z,5.22
2022-11-12T09:26:37.540Z,5.13
2022-11-12T09:29:23.013Z,4.10
2022-11-12T09:32:08.736Z,5.43
2022-11-12T09:34:54.126Z,4.63
2022-11-12T09:37:39.749Z,3.78
2022-11-12T09:40:52.785Z,3.80
2022-11-12T09:44:01.837Z,4.15
2022-11-12T09:47:01.637Z,3.83
2022-11-12T09:50:12.358Z,4.68
2022-11-12T09:53:46.976Z,4.32
2022-11-12T09:56:32.430Z,4.10
2022-11-12T09:59:18.618Z,3.97
2022-11-12T10:02:38.229Z,4.90
2022-11-12T10:05:31.984Z,3.58
2022-11-12T10:08:24.101Z,3.17
2022-11-12T10:11:18.733Z,3.63
2022-11-12T10:14:25.160Z,3.80
2022-11-12T10:17:23.450Z,3.97
2022-11-12T10:20:38.671Z,4.35
2022-11-12T10:23:41.977Z,5.10
2022-11-12T10:26:28.673Z,5.70
2022-11-12T10:29:25.125Z,5.07
2022-11-12T10:32:15.402Z,6.00
2022-11-12T10:35:00.769Z,6.63
2022-11-12T10:37:52.176Z,5.93
2022-11-12T10:40:40.160Z,4.57
2022-11-12T10:43:25.745Z,4.22
2022-11-12T10:46:22.765Z,5.13
2022-11-12T10:49:24.270Z,5.15
2022-11-12T10:52:24.851Z,4.35
2022-11-12T10:55:19.649Z,4.45
2022-11-12T11:01:14.434Z,4.40
2022-11-12T11:04:00.592Z,4.07
2022-11-12T11:06:46.323Z,4.90
2022-11-12T11:09:32.810Z,5.70
2022-11-12T11:12:34.943Z,6.85
2022-11-12T11:15:23.324Z,6.70
2022-11-12T11:18:12.913Z,7.53
2022-11-12T11:21:41.931Z,6.18
2022-11-12T11:24:39.837Z,7.15
2022-11-12T11:27:40.425Z,6.30
2022-11-12T11:30:26.101Z,6.57
2022-11-12T11:33:23.176Z,5.93
2022-11-12T11:36:33.190Z,7.38
2022-11-12T11:39:30.946Z,6.70
2022-11-12T11:42:16.125Z,7.00
2022-11-12T11:45:22.800Z,7.15
2022-11-12T11:48:35.299Z,7.22
2022-11-12T11:51:29.721Z,6.32
2022-11-12T11:54:53.636Z,6.75
2022-11-12T11:58:12.774Z,7.50
2022-11-12T12:01:47.478Z,7.95
2022-11-12T12:04:32.505Z,8.35
2022-11-12T12:07:23.719Z,7.53
2022-11-12T12:10:12.002Z,7.82
2022-11-12T12:13:17.958Z,8.20
2022-11-12T12:16:29.969Z,8.38
2022-11-12T12:19:43.814Z,8.90
2022-11-12T12:22:45.211Z,7.85
2022-11-12T12:25:36.942Z,9.38
2022-11-12T12:28:37.627Z,9.05
2022-11-12T12:31:29.679Z,9.40
2022-11-12T12:34:26.701Z,8.95
2022-11-12T12:37:30.155Z,8.75
2022-11-12T12:40:37.438Z,9.38
2022-11-12T12:43:27.576Z,10.32
2022-11-12T12:46:16.633Z,10.65
2022-11-12T12:49:05.169Z,9.18
2022-11-12T12:51:55.579Z,9.80
2022-11-12T12:54:40.937Z,9.45
2022-11-12T12:57:31.104Z,10.13
2022-11-12T13:00:32.993Z,10.52
2022-11-12T13:03:46.274Z,9.27
2022-11-12T13:06:53.702Z,9.82
2022-11-12T13:09:39.259Z,8.95
2022-11-12T13:13:03.007Z,11.32
2022-11-12T13:15:55.138Z,10.38
2022-11-12T13:18:40.663Z,10.18
2022-11-12T13:21:25.924Z,10.35
2022-11-12T13:24:11.428Z,9.45
2022-11-12T13:27:00.300Z,8.60
2022-11-12T13:29:47.821Z,9.60
2022-11-12T13:32:36.463Z,10.20
2022-11-12T13:35:26.883Z,9.90
2022-11-12T13:38:17.146Z,9.57
2022-11-12T13:41:12.015Z,9.20
2022-11-12T13:43:57.805Z,9.32
2022-11-12T13:46:44.750Z,9.20
2022-11-12T13:49:30.525Z,10.15
2022-11-12T13:52:16.275Z,9.85
2022-11-12T13:55:03.650Z,10.63
2022-11-12T13:57:54.467Z,9.85
2022-11-12T14:00:39.933Z,8.95
2022-11-12T14:03:31.394Z,9.57
2022-11-12T14:06:22.415Z,10.85
2022-11-12T14:09:16.682Z,10.73
2022-11-12T14:12:31.239Z,9.05
2022-11-12T14:15:35.894Z,9.30
2022-11-12T14:18:39.163Z,10.00
2022-11-12T14:21:24.561Z,8.85
2022-11-12T14:24:12.558Z,8.20
2022-11-12T14:26:57.749Z,9.13
2022-11-12T14:29:43.974Z,8.88
2022-11-12T14:32:36.844Z,8.63
2022-11-12T14:35:25.663Z,8.93
2022-11-12T14:38:26.916Z,8.65
2022-11-12T14:41:24.208Z,8.50
2022-11-12T14:44:18.334Z,8.88
2022-11-12T14:47:04.289Z,8.65
2022-11-12T14:49:50.355Z,9.65
2022-11-12T14:52:41.985Z,8.70
2022-11-12T14:55:33.508Z,9.95
2022-11-12T14:58:21.241Z,9.32
2022-11-12T15:04:44.466Z,10.07
2022-11-12T15:07:57.215Z,9.20
2022-11-12T15:10:44.963Z,9.43
2022-11-12T15:27:42.004Z,9.68
2022-11-12T15:30:32.314Z,10.93
2022-11-12T15:33:22.666Z,10.65
2022-11-12T15:36:18.218Z,10.40
2022-11-12T15:39:04.971Z,11.95
2022-11-12T15:42:12.218Z,10.98
2022-11-12T15:45:00.965Z,12.55
2022-11-12T15:47:46.377Z,13.32
2022-11-12T15:50:31.833Z,9.45
2022-11-12T15:53:17.417Z,13.35
2022-11-12T15:56:03.750Z,11.40
2022-11-12T15:58:49.178Z,12.00
2022-11-12T16:01:35.186Z,9.93
2022-11-12T16:04:20.868Z,10.20
2022-11-12T16:07:07.185Z,11.15
2022-11-12T16:09:52.850Z,12.27
2022-11-12T16:12:37.918Z,11.68
2022-11-12T16:15:25.646Z,13.23
2022-11-12T16:18:12.304Z,12.57
2022-11-12T16:20:58.072Z,12.35
2022-11-12T16:23:43.417Z,11.35
2022-11-12T16:26:30.867Z,13.07
2022-11-12T16:29:16.627Z,12.77
2022-11-12T16:32:02.786Z,13.05
2022-11-12T16:34:48.144Z,12.07
2022-11-12T16:37:33.766Z,11.93
2022-11-12T16:40:21.999Z,12.02
2022-11-12T16:43:07.493Z,12.13
2022-11-12T16:45:52.753Z,10.70
2022-11-12T16:48:38.348Z,11.93
2022-11-12T16:51:24.132Z,11.63
2022-11-12T16:54:09.569Z,11.25
2022-11-12T16:56:54.647Z,10.57
2022-11-12T16:59:40.038Z,11.02
2022-11-12T17:02:25.386Z,10.50
2022-11-12T17:05:20.375Z,10.23
2022-11-12T17:08:06.102Z,10.05
2022-11-12T17:10:51.566Z,10.90
2022-11-12T17:13:38.820Z,9.82
2022-11-12T17:16:24.374Z,9.15
2022-11-12T17:19:10.651Z,11.07
2022-11-12T17:21:55.934Z,10.82
2022-11-12T17:24:41.429Z,9.55
2022-11-12T17:27:27.517Z,10.05
2022-11-12T17:30:13.508Z,9.20
2022-11-12T17:33:00.100Z,8.23
2022-11-12T17:35:45.395Z,10.32
2022-11-12T17:38:30.923Z,8.65
2022-11-12T17:41:16.281Z,10.07
2022-11-12T17:44:02.466Z,9.07
2022-11-12T17:46:48.500Z,9.32
2022-11-12T17:49:33.965Z,7.95
2022-11-12T17:52:19.366Z,9.55
2022-11-12T17:55:05.160Z,9.57
2022-11-12T17:57:50.569Z,8.52
2022-11-12T18:00:36.647Z,8.05
2022-11-12T18:03:22.013Z,8.57
2022-11-12T18:06:12.517Z,7.47
2022-11-12T18:09:04.613Z,8.73
2022-11-12T18:11:54.804Z,9.68
2022-11-12T18:14:40.233Z,8.75
2022-11-12T18:17:25.698Z,8.77
2022-11-12T18:20:11.424Z,9.43
2022-11-12T18:22:56.916Z,10.50
2022-11-12T18:25:42.395Z,9.27
2022-11-12T18:28:27.917Z,10.23
2022-11-12T18:31:13.554Z,9.30
2022-11-12T18:33:58.919Z,10.75
2022-11-12T18:36:44.357Z,9.88
2022-11-12T18:39:30.895Z,9.43
2022-11-12T18:42:16.224Z,11.05
2022-11-12T18:45:01.777Z,10.88
2022-11-12T18:47:47.211Z,10.50
2022-11-12T18:50:32.613Z,9.82
2022-11-12T18:53:18.178Z,12.15
2022-11-12T18:56:12.585Z,9.15
2022-11-12T18:58:57.722Z,10.63
2022-11-12T19:01:43.145Z,9.88
2022-11-12T19:04:29.144Z,10.63
2022-11-12T19:07:14.899Z,11.63
2022-11-12T19:10:00.170Z,10.38
2022-11-12T19:12:45.513Z,10.65
2022-11-12T19:15:34.151Z,9.82
2022-11-12T19:18:19.927Z,11.35
2022-11-12T19:21:16.902Z,10.45
2022-11-12T19:24:02.700Z,10.20
2022-11-12T19:26:47.813Z,10.15
2022-11-12T19:29:33.218Z,10.18
2022-11-12T19:32:18.586Z,10.55
2022-11-12T19:35:04.194Z,10.75
2022-11-12T19:37:49.446Z,10.15
2022-11-12T19:40:34.708Z,11.68
2022-11-12T19:43:21.867Z,10.77
2022-11-12T19:46:07.924Z,11.82
2022-11-12T19:48:52.996Z,10.90
2022-11-12T19:51:38.494Z,11.68
2022-11-12T19:54:24.067Z,10.23
2022-11-12T19:57:09.617Z,10.55
2022-11-12T19:59:55.160Z,10.63
2022-11-12T20:02:40.682Z,11.27
2022-11-12T20:05:26.126Z,11.15
2022-11-12T20:08:11.417Z,11.93
2022-11-12T20:10:57.150Z,9.75
2022-11-12T20:13:42.559Z,11.00
2022-11-12T20:16:27.887Z,11.40
2022-11-12T20:19:13.305Z,9.93
2022-11-12T20:21:58.649Z,9.27
2022-11-12T20:24:44.167Z,10.63
2022-11-12T20:27:29.732Z,10.85
2022-11-12T20:30:15.004Z,11.73
2022-11-12T20:33:00.464Z,10.85
2022-11-12T20:35:45.746Z,11.77
2022-11-12T20:38:31.331Z,14.15
2022-11-12T20:41:22.237Z,13.63
2022-11-12T20:44:07.265Z,12.02
2022-11-12T20:46:52.629Z,12.60
2022-11-12T20:49:38.086Z,12.60
2022-11-12T20:52:23.335Z,11.95
2022-11-12T20:55:09.226Z,12.85
2022-11-12T20:57:54.655Z,12.32
2022-11-12T21:00:40.789Z,11.80
2022-11-12T21:03:25.911Z,12.07
2022-11-12T21:06:16.996Z,13.93
2022-11-12T21:09:02.920Z,13.55
2022-11-12T21:11:48.077Z,15.38
2022-11-12T21:14:33.491Z,15.15
2022-11-12T21:17:19.828Z,15.40
2022-11-12T21:20:05.751Z,13.45
2022-11-12T21:22:51.026Z,14.05
2022-11-12T21:25:38.219Z,15.93
2022-11-12T21:28:24.065Z,16.10
2022-11-12T21:31:12.950Z,15.45
2022-11-12T21:34:00.995Z,15.18
2022-11-12T21:36:46.275Z,14.93
2022-11-12T21:39:31.558Z,14.32
2022-11-12T21:42:16.947Z,14.77
2022-11-12T21:45:02.453Z,13.63
2022-11-12T21:47:47.793Z,13.05
2022-11-12T21:50:33.291Z,12.13
2022-11-12T21:53:18.987Z,12.90
2022-11-12T21:56:06.687Z,14.05
2022-11-12T21:58:54.214Z,14.05
2022-11-12T22:01:40.669Z,13.07
2022-11-12T22:04:26.066Z,14.25
2022-11-12T22:07:11.567Z,12.85
2022-11-12T22:09:57.289Z,13.32
2022-11-12T22:13:04.892Z,13.65
2022-11-12T22:15:50.685Z,11.25
2022-11-12T22:18:37.016Z,11.18
2022-11-12T22:21:24.045Z,12.80
2022-11-12T22:24:11.047Z,13.48
2022-11-12T22:26:58.882Z,12.27
2022-11-12T22:29:49.246Z,10.43
2022-11-12T22:32:34.870Z,11.23
2022-11-12T22:35:20.183Z,10.25
2022-11-12T22:38:05.724Z,9.48
2022-11-12T22:40:50.706Z,9.95
2022-11-12T22:43:39.370Z,10.88
2022-11-12T22:46:30.443Z,9.68
2022-11-12T22:49:15.409Z,11.20
2022-11-12T22:52:00.826Z,11.13
2022-11-12T22:54:46.109Z,11.15
2022-11-12T22:57:32.229Z,11.27
2022-11-12T23:00:20.041Z,11.30
2022-11-12T23:03:05.689Z,11.30
2022-11-12T23:05:57.796Z,11.23
2022-11-12T23:08:43.392Z,11.93
2022-11-12T23:11:29.281Z,11.18
2022-11-12T23:14:14.633Z,10.65
2022-11-12T23:17:01.313Z,11.70
2022-11-12T23:19:46.495Z,11.00
2022-11-12T23:22:31.978Z,10.70
2022-11-12T23:25:17.453Z,10.65
2022-11-12T23:28:02.590Z,10.05
2022-11-12T23:30:52.880Z,10.88
2022-11-12T23:33:38.638Z,10.30
2022-11-12T23:36:26.054Z,9.93
2022-11-12T23:39:11.786Z,10.98
2022-11-12T23:41:57.114Z,10.85
2022-11-12T23:44:42.567Z,9.70
2022-11-12T23:47:28.248Z,10.73
2022-11-12T23:50:13.938Z,11.07
2022-11-12T23:52:59.397Z,10.35
2022-11-12T23:55:44.838Z,11.57
2022-11-12T23:58:31.443Z,11.18
